createdAt,value
2018-09-08T00:01:10.547Z,15.20
2018-09-08T00:03:39.438Z,15.20
2018-09-08T00:06:08.011Z,15.20
2018-09-08T00:08:36.516Z,15.20
2018-09-08T00:11:04.979Z,15.20
2018-09-08T00:13:33.642Z,15.10
2018-09-08T00:16:07.600Z,15.10
2018-09-08T00:18:41.263Z,15.00
2018-09-08T00:21:15.003Z,15.00
2018-09-08T00:23:48.835Z,15.00
2018-09-08T00:26:22.759Z,15.00
2018-09-08T00:29:01.011Z,15.00
2018-09-08T00:31:29.612Z,15.00
2018-09-08T00:33:58.185Z,15.00
2018-09-08T00:36:26.739Z,15.00
2018-09-08T00:38:55.207Z,15.00
2018-09-08T00:41:23.748Z,15.00
2018-09-08T00:43:52.135Z,15.00
2018-09-08T00:46:20.896Z,15.00
2018-09-08T00:48:49.486Z,15.00
2018-09-08T00:51:18.184Z,15.00
2018-09-08T00:53:46.644Z,15.00
2018-09-08T00:56:15.033Z,14.90
2018-09-08T00:58:49.639Z,14.90
2018-09-08T01:01:18.183Z,14.90
2018-09-08T01:03:49.677Z,14.80
2018-09-08T01:06:18.342Z,14.80
2018-09-08T01:08:46.796Z,14.80
2018-09-08T01:11:15.429Z,14.70
2018-09-08T01:13:44.141Z,14.70
2018-09-08T01:16:12.555Z,14.60
2018-09-08T01:18:41.131Z,14.60
2018-09-08T01:21:09.918Z,14.50
2018-09-08T01:23:39.319Z,14.40
2018-09-08T01:26:08.271Z,14.40
2018-09-08T01:28:36.763Z,14.30
2018-09-08T01:31:05.319Z,14.30
2018-09-08T01:33:33.932Z,14.20
2018-09-08T01:36:02.663Z,14.20
2018-09-08T01:38:31.225Z,14.20
2018-09-08T01:40:59.750Z,14.10
2018-09-08T01:43:28.227Z,14.00
2018-09-08T01:45:56.628Z,14.00
2018-09-08T01:48:25.099Z,14.00
2018-09-08T01:50:53.604Z,13.90
2018-09-08T01:53:23.010Z,13.80
2018-09-08T01:55:51.592Z,13.70
2018-09-08T01:58:20.056Z,13.70
2018-09-08T02:00:48.668Z,13.70
2018-09-08T02:03:17.175Z,13.60
2018-09-08T02:05:45.611Z,13.50
2018-09-08T02:08:14.063Z,13.50
2018-09-08T02:10:42.667Z,13.50
2018-09-08T02:13:11.723Z,13.50
2018-09-08T02:15:40.190Z,13.40
2018-09-08T02:18:08.694Z,13.40
2018-09-08T02:20:37.279Z,13.30
2018-09-08T02:23:05.800Z,13.20
2018-09-08T02:25:34.277Z,13.20
2018-09-08T02:28:02.798Z,13.10
2018-09-08T02:30:31.448Z,13.10
2018-09-08T02:32:59.896Z,13.10
2018-09-08T02:35:28.511Z,13.00
2018-09-08T02:37:56.960Z,13.00
2018-09-08T02:40:26.039Z,13.00
2018-09-08T02:42:54.511Z,12.90
2018-09-08T02:45:23.063Z,12.80
2018-09-08T02:47:51.466Z,12.80
2018-09-08T02:50:32.769Z,12.80
2018-09-08T02:53:00.542Z,12.70
2018-09-08T02:55:28.193Z,12.60
2018-09-08T02:57:55.985Z,12.60
2018-09-08T03:00:32.837Z,12.60
2018-09-08T03:03:00.234Z,12.50
2018-09-08T03:05:27.599Z,12.40
2018-09-08T03:07:54.948Z,12.40
2018-09-08T03:10:22.722Z,12.20
2018-09-08T03:12:50.040Z,12.20
2018-09-08T03:15:17.425Z,12.20
2018-09-08T03:17:44.687Z,12.10
2018-09-08T03:20:11.999Z,12.00
2018-09-08T03:22:39.365Z,12.00
2018-09-08T03:25:06.727Z,12.00
2018-09-08T03:27:34.089Z,12.00
2018-09-08T03:30:01.407Z,11.90
2018-09-08T03:32:28.731Z,11.90
2018-09-08T03:34:56.067Z,11.90
2018-09-08T03:37:23.504Z,11.80
2018-09-08T03:39:50.860Z,11.80
2018-09-08T03:42:18.311Z,11.70
2018-09-08T03:44:45.632Z,11.70
2018-09-08T03:47:12.992Z,11.70
2018-09-08T03:49:40.279Z,11.70
2018-09-08T03:52:07.598Z,11.60
2018-09-08T03:54:34.875Z,11.60
2018-09-08T03:57:02.206Z,11.60
2018-09-08T03:59:29.501Z,11.50
2018-09-08T04:01:56.869Z,11.40
2018-09-08T04:04:25.351Z,11.40
2018-09-08T04:06:53.807Z,11.40
2018-09-08T04:09:22.933Z,11.30
2018-09-08T04:11:51.436Z,11.30
2018-09-08T04:14:19.829Z,11.30
2018-09-08T04:16:48.262Z,11.30
2018-09-08T04:19:17.000Z,11.30
2018-09-08T04:21:45.481Z,11.20
2018-09-08T04:24:13.976Z,11.20
2018-09-08T04:26:42.480Z,11.20
2018-09-08T04:29:11.090Z,11.20
2018-09-08T04:31:39.599Z,11.10
2018-09-08T04:34:08.084Z,11.20
2018-09-08T04:36:36.739Z,11.20
2018-09-08T04:39:08.123Z,11.20
2018-09-08T04:41:36.759Z,11.10
2018-09-08T04:44:05.195Z,11.10
2018-09-08T04:46:33.692Z,11.10
2018-09-08T04:49:02.283Z,11.00
2018-09-08T04:51:30.892Z,11.10
2018-09-08T04:53:59.576Z,11.10
2018-09-08T04:56:28.143Z,11.10
2018-09-08T04:58:56.596Z,11.00
2018-09-08T05:01:25.137Z,11.00
2018-09-08T05:03:53.699Z,11.00
2018-09-08T05:06:22.144Z,11.00
2018-09-08T05:08:50.567Z,11.00
2018-09-08T05:11:19.117Z,11.00
2018-09-08T05:13:47.551Z,11.00
2018-09-08T05:16:16.013Z,11.00
2018-09-08T05:18:44.460Z,11.00
2018-09-08T05:21:12.961Z,11.00
2018-09-08T05:23:41.436Z,11.00
2018-09-08T05:26:10.124Z,11.00
2018-09-08T05:28:38.582Z,11.00
2018-09-08T05:31:07.028Z,11.10
2018-09-08T05:33:35.468Z,11.10
2018-09-08T05:36:04.356Z,11.10
2018-09-08T05:38:32.818Z,11.10
2018-09-08T05:41:01.230Z,11.10
2018-09-08T05:43:29.785Z,11.10
2018-09-08T05:45:58.394Z,11.10
2018-09-08T05:48:26.977Z,11.20
2018-09-08T05:50:55.532Z,11.20
2018-09-08T05:53:24.244Z,11.30
2018-09-08T05:55:52.729Z,11.30
2018-09-08T05:58:21.315Z,11.30
2018-09-08T06:00:49.759Z,11.40
2018-09-08T06:03:18.198Z,11.40
2018-09-08T06:05:46.755Z,11.40
2018-09-08T06:08:15.199Z,11.50
2018-09-08T06:10:43.650Z,11.60
2018-09-08T06:13:12.236Z,11.60
2018-09-08T06:15:40.724Z,11.70
2018-09-08T06:18:09.395Z,11.80
2018-09-08T06:20:37.880Z,11.90
2018-09-08T06:23:06.688Z,11.90
2018-09-08T06:25:35.244Z,12.00
2018-09-08T06:28:03.947Z,12.10
2018-09-08T06:30:32.558Z,12.20
2018-09-08T06:33:01.346Z,12.20
2018-09-08T06:35:30.185Z,12.30
2018-09-08T06:37:59.253Z,12.30
2018-09-08T06:40:30.020Z,12.40
2018-09-08T06:42:59.008Z,12.40
2018-09-08T06:45:27.573Z,12.50
2018-09-08T06:47:56.241Z,12.50
2018-09-08T06:50:25.070Z,12.50
2018-09-08T06:52:53.666Z,12.60
2018-09-08T06:55:22.802Z,12.60
2018-09-08T06:57:51.929Z,12.60
2018-09-08T07:00:22.645Z,12.70
2018-09-08T07:02:51.172Z,12.70
2018-09-08T07:05:19.708Z,12.70
2018-09-08T07:07:48.377Z,12.70
2018-09-08T07:10:16.880Z,12.80
2018-09-08T07:12:45.531Z,12.80
2018-09-08T07:15:14.107Z,12.80
2018-09-08T07:17:42.572Z,12.80
2018-09-08T07:20:11.012Z,12.90
2018-09-08T07:22:41.179Z,12.90
2018-09-08T07:25:10.671Z,13.00
2018-09-08T07:27:39.071Z,13.10
2018-09-08T07:30:07.777Z,13.20
2018-09-08T07:32:37.699Z,13.30
2018-09-08T07:35:06.535Z,13.30
2018-09-08T07:37:35.012Z,13.50
2018-09-08T07:40:03.475Z,13.50
2018-09-08T07:42:31.987Z,13.60
2018-09-08T07:45:00.668Z,13.60
2018-09-08T07:47:29.423Z,13.60
2018-09-08T07:49:58.125Z,13.70
2018-09-08T07:52:26.637Z,13.70
2018-09-08T07:54:55.150Z,13.80
2018-09-08T07:57:23.732Z,13.90
2018-09-08T07:59:52.200Z,14.00
2018-09-08T08:02:20.688Z,14.10
2018-09-08T08:04:49.296Z,14.20
2018-09-08T08:07:17.829Z,14.30
2018-09-08T08:09:46.618Z,14.30
2018-09-08T08:12:15.743Z,14.40
2018-09-08T08:14:44.312Z,14.60
2018-09-08T08:17:12.874Z,14.70
2018-09-08T08:19:41.364Z,14.70
2018-09-08T08:22:09.937Z,14.90
2018-09-08T08:24:38.574Z,15.10
2018-09-08T08:27:07.217Z,15.20
2018-09-08T08:29:36.670Z,15.30
2018-09-08T08:32:05.308Z,15.30
2018-09-08T08:34:33.791Z,15.40
2018-09-08T08:37:02.500Z,15.60
2018-09-08T08:39:31.013Z,15.80
2018-09-08T08:41:59.575Z,15.90
2018-09-08T08:44:28.396Z,16.30
2018-09-08T08:46:56.987Z,16.70
2018-09-08T08:49:25.604Z,17.00
2018-09-08T08:52:05.415Z,17.50
2018-09-08T08:54:40.894Z,18.20
2018-09-08T08:57:09.545Z,18.70
2018-09-08T08:59:38.254Z,19.30
2018-09-08T09:02:06.819Z,19.70
2018-09-08T09:04:35.416Z,19.70
2018-09-08T09:07:04.442Z,19.90
2018-09-08T09:09:34.404Z,20.40
2018-09-08T09:12:06.526Z,21.00
2018-09-08T09:14:35.524Z,21.80
2018-09-08T09:17:03.716Z,22.50
2018-09-08T09:19:44.020Z,23.00
2018-09-08T09:22:25.334Z,23.20
2018-09-08T09:25:00.041Z,23.80
2018-09-08T09:27:30.017Z,24.40
2018-09-08T09:29:58.811Z,24.90
2018-09-08T09:32:27.402Z,24.70
2018-09-08T09:34:56.157Z,24.40
2018-09-08T09:37:24.950Z,24.30
2018-09-08T09:39:54.187Z,24.70
2018-09-08T09:42:23.186Z,25.40
2018-09-08T09:44:53.025Z,25.90
2018-09-08T09:47:21.917Z,26.60
2018-09-08T09:49:50.450Z,26.90
2018-09-08T09:52:18.957Z,26.60
2018-09-08T09:54:47.416Z,26.50
2018-09-08T09:57:15.984Z,26.70
2018-09-08T09:59:44.409Z,27.30
2018-09-08T10:02:44.339Z,27.40
2018-09-08T10:05:17.074Z,28.00
2018-09-08T10:07:45.903Z,28.40
2018-09-08T10:10:15.781Z,28.80
2018-09-08T10:12:44.488Z,29.00
2018-09-08T10:15:12.949Z,29.30
2018-09-08T10:17:42.126Z,29.30
2018-09-08T10:20:12.953Z,29.80
2018-09-08T10:22:41.457Z,30.10
2018-09-08T10:25:12.089Z,29.90
2018-09-08T10:27:40.706Z,30.30
2018-09-08T10:30:10.087Z,30.80
2018-09-08T10:32:38.888Z,30.50
2018-09-08T10:35:07.552Z,30.50
2018-09-08T10:37:35.998Z,30.90
2018-09-08T10:40:05.334Z,31.00
2018-09-08T10:42:33.887Z,31.80
2018-09-08T10:45:02.404Z,31.70
2018-09-08T10:47:31.004Z,32.00
2018-09-08T10:49:59.697Z,31.90
2018-09-08T10:52:36.370Z,32.60
2018-09-08T10:55:04.911Z,32.60
2018-09-08T10:57:33.440Z,32.40
2018-09-08T11:00:02.861Z,32.40
2018-09-08T11:02:31.659Z,33.10
2018-09-08T11:05:01.076Z,33.50
2018-09-08T11:07:29.693Z,33.20
2018-09-08T11:09:58.181Z,33.50
2018-09-08T11:12:26.628Z,33.60
2018-09-08T11:14:55.047Z,34.20
2018-09-08T11:17:23.626Z,34.90
2018-09-08T11:19:52.016Z,35.00
2018-09-08T11:22:20.600Z,35.10
2018-09-08T11:24:49.332Z,35.50
2018-09-08T11:27:17.984Z,36.30
2018-09-08T11:29:46.411Z,35.70
2018-09-08T11:32:14.852Z,36.30
2018-09-08T11:34:43.387Z,36.50
2018-09-08T11:37:11.790Z,37.10
2018-09-08T11:39:40.300Z,37.30
2018-09-08T11:42:08.720Z,37.80
2018-09-08T11:44:37.241Z,38.10
2018-09-08T11:47:05.889Z,38.30
2018-09-08T11:49:34.445Z,37.70
2018-09-08T11:52:02.880Z,38.10
2018-09-08T11:54:31.420Z,38.50
2018-09-08T11:56:59.998Z,38.60
2018-09-08T11:59:28.682Z,39.50
2018-09-08T12:01:57.244Z,40.50
2018-09-08T12:04:25.776Z,39.70
2018-09-08T12:06:54.794Z,39.00
2018-09-08T12:09:23.367Z,38.60
2018-09-08T12:11:51.923Z,38.20
2018-09-08T12:14:20.421Z,37.90
2018-09-08T12:16:48.821Z,37.00
2018-09-08T12:19:17.329Z,36.60
2018-09-08T12:21:45.943Z,36.50
2018-09-08T12:24:14.399Z,36.20
2018-09-08T12:26:42.912Z,35.50
2018-09-08T12:29:11.367Z,35.00
2018-09-08T12:31:39.909Z,34.30
2018-09-08T12:34:08.889Z,34.00
2018-09-08T12:36:37.535Z,34.30
2018-09-08T12:39:07.895Z,34.10
2018-09-08T12:41:36.686Z,34.30
2018-09-08T12:44:05.351Z,34.00
2018-09-08T12:46:34.211Z,33.50
2018-09-08T12:49:03.091Z,32.40
2018-09-08T12:51:32.453Z,31.90
2018-09-08T12:54:02.290Z,31.50
2018-09-08T12:56:31.451Z,31.50
2018-09-08T12:59:00.872Z,31.30
2018-09-08T13:01:29.903Z,31.30
2018-09-08T13:03:58.781Z,31.50
2018-09-08T13:06:27.496Z,31.40
2018-09-08T13:08:56.365Z,31.50
2018-09-08T13:11:31.067Z,31.60
2018-09-08T13:13:59.928Z,31.40
2018-09-08T13:16:29.001Z,32.10
2018-09-08T13:18:57.637Z,32.00
2018-09-08T13:21:27.170Z,32.50
2018-09-08T13:23:55.801Z,32.10
2018-09-08T13:26:24.600Z,32.20
2018-09-08T13:28:53.480Z,32.00
2018-09-08T13:31:21.987Z,31.60
2018-09-08T13:33:50.872Z,30.70
2018-09-08T13:36:19.401Z,29.70
2018-09-08T13:38:47.889Z,29.80
2018-09-08T13:41:16.684Z,29.70
2018-09-08T13:43:45.538Z,30.10
2018-09-08T13:46:14.565Z,30.10
2018-09-08T13:48:43.209Z,30.50
2018-09-08T13:51:12.009Z,30.80
2018-09-08T13:53:40.803Z,30.80
2018-09-08T13:56:09.765Z,30.30
2018-09-08T13:58:38.552Z,29.30
2018-09-08T14:01:07.445Z,29.10
2018-09-08T14:03:36.395Z,28.00
2018-09-08T14:06:05.252Z,28.00
